createdAt,value
2023-01-10T00:39:12.919Z,28.60
2023-01-10T00:42:00.741Z,28.70
2023-01-10T00:44:30.291Z,28.70
2023-01-10T00:46:59.745Z,28.80
2023-01-10T00:49:29.059Z,28.80
2023-01-10T00:52:00.179Z,28.70
2023-01-10T00:54:29.992Z,28.70
2023-01-10T00:56:59.328Z,28.80
2023-01-10T00:59:28.811Z,29.10
2023-01-10T01:01:58.642Z,29.30
2023-01-10T01:04:28.093Z,29.30
2023-01-10T01:07:00.032Z,29.20
2023-01-10T01:09:30.603Z,29.10
2023-01-10T01:12:01.026Z,29.30
2023-01-10T01:14:30.784Z,29.30
2023-01-10T01:17:00.609Z,29.40
2023-01-10T01:19:31.504Z,29.50
2023-01-10T01:22:01.281Z,29.70
2023-01-10T01:24:30.669Z,29.80
2023-01-10T01:27:00.426Z,29.90
2023-01-10T01:29:42.357Z,29.90
2023-01-10T01:32:12.580Z,30.00
2023-01-10T01:34:43.761Z,30.20
2023-01-10T01:37:14.247Z,30.40
2023-01-10T01:39:43.746Z,30.30
2023-01-10T01:42:23.824Z,30.50
2023-01-10T01:45:28.567Z,30.60
2023-01-10T01:48:03.038Z,30.40
2023-01-10T01:51:06.958Z,30.60
2023-01-10T01:53:46.623Z,30.80
2023-01-10T01:56:25.823Z,30.70
2023-01-10T01:58:58.952Z,30.70
2023-01-10T02:01:30.289Z,30.50
2023-01-10T02:04:19.782Z,30.70
2023-01-10T02:06:51.073Z,30.80
2023-01-10T02:09:26.080Z,31.00
2023-01-10T02:11:56.463Z,31.20
2023-01-10T02:14:27.068Z,31.40
2023-01-10T02:16:56.421Z,31.60
2023-01-10T02:19:25.804Z,31.80
2023-01-10T02:22:14.287Z,31.40
2023-01-10T02:25:02.046Z,31.40
2023-01-10T02:27:40.770Z,31.70
2023-01-10T02:30:28.974Z,32.00
2023-01-10T02:33:05.424Z,32.20
2023-01-10T02:35:45.150Z,32.20
2023-01-10T02:38:33.373Z,32.30
2023-01-10T02:41:09.341Z,32.50
2023-01-10T02:43:44.900Z,32.50
2023-01-10T02:46:26.545Z,32.50
2023-01-10T02:48:57.114Z,32.30
2023-01-10T02:51:30.857Z,32.30
2023-01-10T02:54:06.468Z,32.40
2023-01-10T02:56:38.966Z,32.60
2023-01-10T02:59:15.585Z,32.70
2023-01-10T03:01:51.582Z,32.40
2023-01-10T03:04:30.545Z,32.50
2023-01-10T03:07:20.111Z,32.70
2023-01-10T03:09:52.427Z,32.80
2023-01-10T03:12:27.572Z,32.90
2023-01-10T03:14:57.785Z,33.00
2023-01-10T03:17:28.618Z,33.00
2023-01-10T03:36:01.832Z,31.70
2023-01-10T06:26:58.807Z,30.50
2023-01-10T06:29:29.534Z,30.40
2023-01-10T06:32:01.323Z,30.30
2023-01-10T06:34:34.908Z,30.30
2023-01-10T06:37:25.336Z,30.30
2023-01-10T06:42:45.480Z,30.20
2023-01-10T06:45:15.047Z,30.10
2023-01-10T06:47:51.488Z,30.10
2023-01-10T06:50:37.913Z,30.00
2023-01-10T06:53:08.206Z,29.90
2023-01-10T06:55:38.234Z,29.90
2023-01-10T06:58:07.886Z,29.90
2023-01-10T07:00:37.549Z,29.80
2023-01-10T07:03:07.310Z,29.70
2023-01-10T07:05:38.260Z,29.70
2023-01-10T07:08:08.953Z,29.70
2023-01-10T07:11:17.520Z,29.70
2023-01-10T07:13:47.104Z,29.70
2023-01-10T07:16:32.147Z,29.60
2023-01-10T07:19:07.369Z,29.60
2023-01-10T07:21:45.795Z,29.40
2023-01-10T07:24:33.088Z,29.40
2023-01-10T07:27:11.591Z,29.40
2023-01-10T07:29:41.213Z,29.30
2023-01-10T07:32:10.932Z,29.20
2023-01-10T07:34:40.457Z,29.00
2023-01-10T07:37:09.967Z,29.00
2023-01-10T07:39:39.779Z,28.90
2023-01-10T07:42:09.278Z,28.90
2023-01-10T07:44:39.809Z,28.80
2023-01-10T07:47:10.536Z,28.80
2023-01-10T07:49:40.048Z,28.70
2023-01-10T07:52:11.280Z,28.70
2023-01-10T07:54:40.802Z,28.50
2023-01-10T07:57:10.340Z,28.40
2023-01-10T07:59:41.090Z,28.30
2023-01-10T08:02:12.192Z,28.20
2023-01-10T08:04:41.800Z,28.20
2023-01-10T08:07:11.273Z,28.00
2023-01-10T08:09:40.797Z,28.00
2023-01-10T08:12:10.554Z,28.00
2023-01-10T08:14:41.139Z,27.80
2023-01-10T08:17:11.811Z,27.80
2023-01-10T08:19:41.331Z,27.70
2023-01-10T08:22:11.078Z,27.70
2023-01-10T08:24:41.098Z,27.60
2023-01-10T08:27:10.749Z,27.40
2023-01-10T08:29:40.246Z,27.30
2023-01-10T08:32:10.303Z,27.20
2023-01-10T08:34:39.845Z,27.00
2023-01-10T08:37:09.375Z,26.90
2023-01-10T08:39:40.991Z,26.80
2023-01-10T08:42:10.537Z,26.60
2023-01-10T08:44:40.108Z,26.50
2023-01-10T08:47:09.790Z,26.40
2023-01-10T08:49:39.268Z,26.20
2023-01-10T08:52:08.769Z,26.10
2023-01-10T08:54:38.439Z,26.00
2023-01-10T08:57:09.034Z,25.70
2023-01-10T08:59:39.001Z,25.70
2023-01-10T09:02:10.206Z,25.50
2023-01-10T09:04:39.884Z,25.40
2023-01-10T09:07:09.407Z,25.20
2023-01-10T09:09:39.881Z,25.10
2023-01-10T09:12:29.608Z,25.00
2023-01-10T09:14:59.173Z,24.90
2023-01-10T09:17:28.794Z,24.80
2023-01-10T09:19:58.453Z,24.70
2023-01-10T09:22:29.054Z,24.60
2023-01-10T09:24:59.181Z,24.50
2023-01-10T09:27:28.831Z,24.40
2023-01-10T09:29:59.596Z,24.30
2023-01-10T09:32:29.283Z,24.20
2023-01-10T09:34:58.843Z,24.10
2023-01-10T09:37:28.818Z,24.00
2023-01-10T09:39:59.492Z,23.90
2023-01-10T09:42:40.975Z,23.80
2023-01-10T09:45:25.831Z,23.80
2023-01-10T09:47:57.911Z,23.70
2023-01-10T09:50:36.027Z,23.60
2023-01-10T09:53:08.052Z,23.50
2023-01-10T09:55:39.439Z,23.40
2023-01-10T09:58:17.629Z,23.30
2023-01-10T10:00:53.291Z,23.30
2023-01-10T10:03:41.366Z,23.20
2023-01-10T10:06:15.475Z,23.10
2023-01-10T10:08:46.581Z,23.00
2023-01-10T10:11:25.285Z,22.90
2023-01-10T10:14:10.273Z,22.80
2023-01-10T10:16:48.350Z,22.80
2023-01-10T10:19:28.197Z,22.70
2023-01-10T10:22:00.662Z,22.50
2023-01-10T10:24:32.905Z,22.40
2023-01-10T10:27:11.166Z,22.40
2023-01-10T10:29:43.658Z,22.40
2023-01-10T10:32:23.066Z,22.30
2023-01-10T10:34:58.087Z,22.20
2023-01-10T10:37:38.169Z,22.20
2023-01-10T10:40:16.859Z,22.10
2023-01-10T10:42:54.665Z,22.00
2023-01-10T10:45:27.475Z,22.00
2023-01-10T10:48:03.063Z,21.80
2023-01-10T10:50:47.756Z,21.80
2023-01-10T10:53:17.904Z,21.80
2023-01-10T10:55:47.996Z,21.70
2023-01-10T10:58:17.524Z,21.70
2023-01-10T11:00:48.164Z,21.60
2023-01-10T11:03:29.803Z,21.50
2023-01-10T11:06:00.124Z,21.50
2023-01-10T11:08:31.084Z,21.40
2023-01-10T11:11:02.589Z,21.30
2023-01-10T11:13:34.907Z,21.30
2023-01-10T11:16:06.763Z,21.30
2023-01-10T11:18:40.012Z,21.20
2023-01-10T11:21:22.100Z,21.10
2023-01-10T11:23:53.326Z,21.10
2023-01-10T11:26:30.542Z,21.00
2023-01-10T11:29:26.005Z,21.00
2023-01-10T11:31:56.421Z,21.00
2023-01-10T11:34:26.015Z,20.90
2023-01-10T16:55:47.715Z,17.10
2023-01-10T16:58:17.962Z,17.10
2023-01-10T17:00:49.057Z,17.20
2023-01-10T17:03:25.074Z,17.10
2023-01-10T17:05:54.851Z,17.20
2023-01-10T17:08:25.786Z,17.20
2023-01-10T17:10:58.598Z,17.20
2023-01-10T17:13:38.489Z,17.20
2023-01-10T17:16:08.410Z,17.20
2023-01-10T17:18:39.488Z,17.20
2023-01-10T17:21:09.197Z,17.20
2023-01-10T17:23:38.704Z,17.20
2023-01-10T17:26:08.263Z,17.20
2023-01-10T17:28:38.255Z,17.20
2023-01-10T17:31:07.787Z,17.30
2023-01-10T17:33:37.736Z,17.30
2023-01-10T17:36:07.509Z,17.20
2023-01-10T17:38:36.999Z,17.30
2023-01-10T17:41:06.532Z,17.30
2023-01-10T17:43:36.188Z,17.20
2023-01-10T17:46:07.344Z,17.30
2023-01-10T17:48:37.745Z,17.30
2023-01-10T17:51:07.328Z,17.20
2023-01-10T18:06:22.798Z,17.30
2023-01-10T18:08:53.115Z,17.30
2023-01-10T18:11:23.002Z,17.30
2023-01-10T18:13:53.640Z,17.30
2023-01-10T18:16:25.070Z,17.30
2023-01-10T18:18:56.565Z,17.30
2023-01-10T18:21:26.218Z,17.30
2023-01-10T18:24:04.427Z,17.30
2023-01-10T18:26:34.074Z,17.30
2023-01-10T18:29:03.621Z,17.30
2023-01-10T18:31:33.511Z,17.30
2023-01-10T18:34:03.049Z,17.30
2023-01-10T18:36:33.377Z,17.30
2023-01-10T18:39:05.004Z,17.30
2023-01-10T18:41:34.578Z,17.30
2023-01-10T18:44:04.137Z,17.30
2023-01-10T18:46:34.035Z,17.20
2023-01-10T18:49:03.614Z,17.20
2023-01-10T18:51:33.173Z,17.30
2023-01-10T18:54:03.200Z,17.20
2023-01-10T18:56:32.727Z,17.30
2023-01-10T18:59:02.215Z,17.30
2023-01-10T19:01:33.806Z,17.30
2023-01-10T19:04:06.956Z,17.30
2023-01-10T19:06:36.696Z,17.30
2023-01-10T19:09:06.345Z,17.30
2023-01-10T19:11:36.826Z,17.30
2023-01-10T19:14:06.495Z,17.20
2023-01-10T19:16:36.164Z,17.20
2023-01-10T19:19:08.173Z,17.30
2023-01-10T19:21:40.536Z,17.30
2023-01-10T19:24:17.527Z,17.20
2023-01-10T19:26:47.010Z,17.20
2023-01-10T19:29:17.585Z,17.20
2023-01-10T19:31:49.881Z,17.20
2023-01-10T19:34:19.527Z,17.20
2023-01-10T19:36:49.033Z,17.20
2023-01-10T19:39:18.630Z,17.20
2023-01-10T19:41:48.148Z,17.30
2023-01-10T19:44:18.637Z,17.20
2023-01-10T19:46:49.193Z,17.20
2023-01-10T19:49:21.049Z,17.20
2023-01-10T19:51:52.775Z,17.30
2023-01-10T19:54:22.443Z,17.30
2023-01-10T19:56:53.194Z,17.20
2023-01-10T19:59:22.726Z,17.20
2023-01-10T20:01:53.456Z,17.20
2023-01-10T20:06:49.275Z,17.10
2023-01-10T20:09:18.943Z,17.20
2023-01-10T20:11:48.560Z,17.20
2023-01-10T20:14:22.374Z,17.10
2023-01-10T20:16:53.852Z,17.20
2023-01-10T20:19:24.361Z,17.20
2023-01-10T20:21:53.897Z,17.20
2023-01-10T20:24:23.613Z,17.20
2023-01-10T20:26:53.853Z,17.10
2023-01-10T20:29:23.411Z,17.20
2023-01-10T20:31:57.446Z,17.20
2023-01-10T20:34:26.920Z,17.30
2023-01-10T20:36:56.744Z,17.30
2023-01-10T20:39:32.227Z,17.30
2023-01-10T20:42:01.983Z,17.40
2023-01-10T20:44:33.093Z,17.40
2023-01-10T20:47:02.679Z,17.50
2023-01-10T20:49:32.215Z,17.50
2023-01-10T20:52:02.749Z,17.50
2023-01-10T20:54:32.270Z,17.60
2023-01-10T20:57:01.910Z,17.70
2023-01-10T20:59:31.408Z,17.70
2023-01-10T21:02:02.343Z,17.70
2023-01-10T21:04:31.976Z,17.80
2023-01-10T21:23:38.770Z,18.10
2023-01-10T21:26:09.776Z,18.20
2023-01-10T21:28:40.789Z,18.30
2023-01-10T21:31:13.901Z,18.30
2023-01-10T21:33:44.010Z,18.40
2023-01-10T21:36:15.060Z,18.60
2023-01-10T21:38:45.437Z,18.60
2023-01-10T21:41:16.173Z,18.70
2023-01-10T21:43:47.818Z,18.70
2023-01-10T21:46:19.350Z,18.80
2023-01-10T21:48:48.972Z,18.70
2023-01-10T21:51:18.477Z,18.60
2023-01-10T21:53:47.974Z,18.60
2023-01-10T21:56:17.508Z,18.60
2023-01-10T21:58:48.524Z,18.70
2023-01-10T22:01:18.600Z,18.80
2023-01-10T22:03:48.523Z,18.80
2023-01-10T22:06:18.315Z,18.80
2023-01-10T22:08:49.124Z,18.80
2023-01-10T22:11:18.655Z,18.90
2023-01-10T22:13:50.131Z,19.20
2023-01-10T22:16:20.228Z,19.30
2023-01-10T22:18:50.657Z,19.30
2023-01-10T22:21:21.337Z,19.40
